createdAt,value
2023-02-21T00:00:42.729Z,28.10
2023-02-21T00:03:41.184Z,27.48
2023-02-21T00:06:42.526Z,29.48
2023-02-21T00:09:34.291Z,27.52
2023-02-21T00:12:27.462Z,27.80
2023-02-21T00:15:19.550Z,28.58
2023-02-21T00:18:05.145Z,29.52
2023-02-21T00:20:57.284Z,29.58
2023-02-21T00:23:43.062Z,27.45
2023-02-21T00:26:37.464Z,27.20
2023-02-21T00:32:29.329Z,27.27
2023-02-21T00:35:14.766Z,28.15
2023-02-21T00:38:07.214Z,29.95
2023-02-21T00:41:01.899Z,23.20
2023-02-21T00:43:59.260Z,30.10
2023-02-21T00:46:45.077Z,26.70
2023-02-21T00:49:41.305Z,26.70
2023-02-21T00:52:26.964Z,28.05
2023-02-21T00:55:19.263Z,26.70
2023-02-21T00:58:07.132Z,28.38
2023-02-21T01:00:59.292Z,27.08
2023-02-21T01:04:04.256Z,27.27
2023-02-21T01:06:59.239Z,27.30
2023-02-21T01:09:51.245Z,28.00
2023-02-21T01:12:36.632Z,28.33
2023-02-21T01:15:32.261Z,28.70
2023-02-21T01:21:22.337Z,25.60
2023-02-21T01:24:08.274Z,28.50
2023-02-21T01:27:00.282Z,27.73
2023-02-21T01:30:23.708Z,27.23
2023-02-21T01:33:16.281Z,28.40
2023-02-21T01:36:13.946Z,26.98
2023-02-21T01:49:15.480Z,27.00
2023-02-21T01:52:03.910Z,27.35
2023-02-21T01:57:58.218Z,28.40
2023-02-21T02:00:51.277Z,27.35
2023-02-21T02:03:53.142Z,28.58
2023-02-21T02:06:45.233Z,27.77
2023-02-21T02:10:01.350Z,27.30
2023-02-21T02:13:02.307Z,27.08
2023-02-21T02:15:41.604Z,30.40
2023-02-21T02:18:15.254Z,27.45
2023-02-21T02:21:26.340Z,27.23
2023-02-21T02:24:18.420Z,25.50
2023-02-21T02:27:03.725Z,29.17
2023-02-21T02:29:55.271Z,26.50
2023-02-21T02:32:47.271Z,27.95
2023-02-21T02:35:41.260Z,26.65
2023-02-21T02:38:23.371Z,26.02
2023-02-21T02:41:31.573Z,25.70
2023-02-21T02:44:07.145Z,27.00
2023-02-21T02:46:47.301Z,25.52
2023-02-21T02:49:29.233Z,27.55
2023-02-21T02:52:09.226Z,25.92
2023-02-21T02:54:39.698Z,26.10
2023-02-21T02:57:19.206Z,27.02
2023-02-21T02:59:48.139Z,25.27
2023-02-21T03:02:43.343Z,25.45
2023-02-21T03:05:23.130Z,28.05
2023-02-21T03:08:09.830Z,26.40
2023-02-21T03:10:54.533Z,26.52
2023-02-21T03:13:31.538Z,27.42
2023-02-21T03:16:26.720Z,26.20
2023-02-21T03:19:16.269Z,27.10
2023-02-21T03:22:11.554Z,25.88
2023-02-21T03:24:50.278Z,27.73
2023-02-21T03:27:25.618Z,25.80
2023-02-21T03:30:05.364Z,27.65
2023-02-21T03:32:48.280Z,27.35
2023-02-21T03:35:22.318Z,27.33
2023-02-21T03:37:59.009Z,25.02
2023-02-21T03:40:38.348Z,27.00
2023-02-21T03:43:09.994Z,28.70
2023-02-21T03:45:44.418Z,26.33
2023-02-21T03:48:31.341Z,27.25
2023-02-21T03:51:09.133Z,26.27
2023-02-21T03:53:36.491Z,26.15
2023-02-21T03:56:10.254Z,27.95
2023-02-21T03:58:38.425Z,27.30
2023-02-21T04:04:44.227Z,27.13
2023-02-21T04:07:29.257Z,27.83
2023-02-21T04:09:58.981Z,27.17
2023-02-21T04:12:35.428Z,26.90
2023-02-21T04:15:02.641Z,27.05
2023-02-21T04:17:36.335Z,26.25
2023-02-21T04:20:04.139Z,27.20
2023-02-21T04:22:39.817Z,25.92
2023-02-21T04:25:13.512Z,26.25
2023-02-21T04:27:40.632Z,26.83
2023-02-21T04:30:16.219Z,28.65
2023-02-21T04:32:43.550Z,28.27
2023-02-21T04:35:17.392Z,27.55
2023-02-21T04:37:49.170Z,26.73
2023-02-21T04:40:23.346Z,27.35
2023-02-21T04:42:50.289Z,26.55
2023-02-21T04:45:24.408Z,26.98
2023-02-21T04:47:51.868Z,28.15
2023-02-21T04:50:27.550Z,29.23
2023-02-21T04:52:55.227Z,26.65
2023-02-21T04:55:28.354Z,26.65
2023-02-21T04:58:05.380Z,29.83
2023-02-21T05:00:32.718Z,28.58
2023-02-21T05:03:06.332Z,28.73
2023-02-21T05:05:46.164Z,27.40
2023-02-21T05:11:01.215Z,25.23
2023-02-21T05:13:35.370Z,28.77
2023-02-21T05:16:05.562Z,27.73
2023-02-21T05:21:17.466Z,28.10
2023-02-21T05:24:02.458Z,29.08
2023-02-21T05:26:38.844Z,27.83
2023-02-21T05:29:12.406Z,28.75
2023-02-21T05:31:46.349Z,27.20
2023-02-21T05:34:26.351Z,27.50
2023-02-21T05:37:02.986Z,26.95
2023-02-21T05:39:40.860Z,25.88
2023-02-21T05:42:17.469Z,26.85
2023-02-21T05:44:47.618Z,28.10
2023-02-21T05:47:24.413Z,26.80
2023-02-21T05:49:51.720Z,27.73
2023-02-21T05:55:06.521Z,27.10
2023-02-21T05:57:45.343Z,27.30
2023-02-21T06:00:32.920Z,25.75
2023-02-21T06:03:06.443Z,27.30
2023-02-21T06:05:40.630Z,26.58
2023-02-21T06:08:23.372Z,27.00
2023-02-21T06:10:50.515Z,26.52
2023-02-21T06:13:24.381Z,28.77
2023-02-21T06:15:51.662Z,29.73
2023-02-21T06:18:21.515Z,27.60
2023-02-21T06:23:36.629Z,30.30
2023-02-21T06:26:10.615Z,30.80
2023-02-21T06:28:37.969Z,30.38
2023-02-21T06:31:12.543Z,31.13
2023-02-21T06:33:39.727Z,31.35
2023-02-21T06:36:18.979Z,30.20
2023-02-21T06:38:49.332Z,30.50
2023-02-21T06:41:29.449Z,31.65
2023-02-21T06:44:00.525Z,30.33
2023-02-21T06:46:41.145Z,32.40
2023-02-21T06:49:08.094Z,31.35
2023-02-21T06:51:47.359Z,31.77
2023-02-21T06:54:17.362Z,31.65
2023-02-21T06:56:51.272Z,30.58
2023-02-21T06:59:27.292Z,31.58
2023-02-21T07:04:48.709Z,32.97
2023-02-21T07:07:31.507Z,32.40
2023-02-21T07:10:05.414Z,31.02
2023-02-21T07:12:32.344Z,30.60
2023-02-21T07:17:41.365Z,32.75
2023-02-21T07:22:58.624Z,34.33
2023-02-21T07:28:17.726Z,33.40
2023-02-21T07:30:53.896Z,33.58
2023-02-21T07:33:21.013Z,31.92
2023-02-21T07:38:35.454Z,32.10
2023-02-21T07:41:10.396Z,32.03
2023-02-21T07:43:47.386Z,32.42
2023-02-21T07:46:24.591Z,30.73
2023-02-21T07:48:56.026Z,33.40
2023-02-21T07:54:33.528Z,29.92
2023-02-21T07:59:51.101Z,32.97
2023-02-21T08:05:13.454Z,35.40
2023-02-21T08:07:46.522Z,32.50
2023-02-21T08:10:26.420Z,32.42
2023-02-21T08:12:54.085Z,33.80
2023-02-21T08:15:27.418Z,31.25
2023-02-21T08:17:54.779Z,32.15
2023-02-21T08:20:28.393Z,30.83
2023-02-21T08:23:02.525Z,32.30
2023-02-21T08:28:24.471Z,29.70
2023-02-21T08:30:58.360Z,33.67
2023-02-21T08:33:25.673Z,35.40
2023-02-21T08:36:02.297Z,32.17
2023-02-21T08:38:31.463Z,33.92
2023-02-21T08:41:09.464Z,31.92
2023-02-21T08:43:36.655Z,33.30
2023-02-21T08:46:39.510Z,31.55
2023-02-21T08:49:06.879Z,33.20
2023-02-21T08:51:41.476Z,33.03
2023-02-21T08:56:57.517Z,31.40
2023-02-21T08:59:37.201Z,31.95
2023-02-21T09:02:04.664Z,32.28
2023-02-21T09:04:38.536Z,31.63
2023-02-21T09:07:17.715Z,31.45
2023-02-21T09:09:51.475Z,31.38
2023-02-21T09:12:18.907Z,30.00
2023-02-21T09:14:52.351Z,33.40
2023-02-21T09:17:33.136Z,32.20
2023-02-21T09:20:25.127Z,32.58
2023-02-21T09:22:52.935Z,29.90
2023-02-21T09:25:31.620Z,30.88
2023-02-21T09:28:00.715Z,32.47
2023-02-21T09:30:36.492Z,30.90
2023-02-21T09:33:03.546Z,31.95
2023-02-21T09:35:33.079Z,32.15
2023-02-21T09:38:07.403Z,28.15
2023-02-21T09:40:44.389Z,31.42
2023-02-21T09:43:57.418Z,27.85
2023-02-21T09:46:56.607Z,31.75
2023-02-21T09:49:36.268Z,28.02
2023-02-21T09:54:47.563Z,29.00
2023-02-21T09:57:25.511Z,29.00
2023-02-21T09:59:52.881Z,30.23
2023-02-21T10:02:44.499Z,30.20
2023-02-21T10:05:39.189Z,28.05
2023-02-21T10:08:33.385Z,27.75
2023-02-21T10:11:22.177Z,27.15
2023-02-21T10:14:05.448Z,28.02
2023-02-21T10:17:03.505Z,26.58
2023-02-21T10:19:42.450Z,28.98
2023-02-21T10:22:29.001Z,27.42
2023-02-21T10:25:02.488Z,25.95
2023-02-21T10:27:33.215Z,26.70
2023-02-21T10:30:17.566Z,25.63
2023-02-21T10:32:45.342Z,26.92
2023-02-21T10:35:19.421Z,25.77
2023-02-21T10:37:57.202Z,26.30
2023-02-21T10:40:40.474Z,27.23
2023-02-21T10:43:12.218Z,24.25
2023-02-21T10:46:02.489Z,26.60
2023-02-21T10:48:35.609Z,25.90
2023-02-21T10:51:23.465Z,25.67
2023-02-21T10:53:53.047Z,25.48
2023-02-21T10:56:34.559Z,24.30
2023-02-21T10:59:07.249Z,24.52
2023-02-21T11:01:47.620Z,23.45
2023-02-21T11:04:27.551Z,24.35
2023-02-21T11:07:16.916Z,25.15
2023-02-21T11:09:53.606Z,23.45
2023-02-21T11:12:32.428Z,22.48
2023-02-21T11:15:05.529Z,23.80
2023-02-21T11:17:33.564Z,25.73
2023-02-21T11:20:26.594Z,23.75
2023-02-21T11:22:53.865Z,22.38
2023-02-21T11:25:39.480Z,23.40
2023-02-21T11:28:19.147Z,25.17
2023-02-21T11:34:08.530Z,24.67
2023-02-21T11:36:53.636Z,24.00
2023-02-21T11:39:34.616Z,22.60
2023-02-21T11:42:23.421Z,22.15
2023-02-21T11:45:11.625Z,22.58
2023-02-21T11:47:51.025Z,22.35
2023-02-21T11:50:32.569Z,23.10
2023-02-21T11:53:29.548Z,22.02
2023-02-21T11:56:20.506Z,22.55
2023-02-21T11:58:47.658Z,22.55
2023-02-21T12:01:36.580Z,21.63
2023-02-21T12:04:22.616Z,21.98
2023-02-21T12:07:37.536Z,21.75
2023-02-21T12:10:12.580Z,21.95
2023-02-21T12:12:54.594Z,22.25
2023-02-21T12:15:38.257Z,22.95
2023-02-21T12:18:11.531Z,21.85
2023-02-21T12:20:57.620Z,20.98
2023-02-21T12:23:47.441Z,21.25
2023-02-21T12:27:00.566Z,20.27
2023-02-21T12:29:55.604Z,19.55
2023-02-21T12:32:41.021Z,20.02
2023-02-21T12:35:40.574Z,20.88
2023-02-21T12:38:46.584Z,18.65
2023-02-21T12:41:37.673Z,18.50
2023-02-21T12:44:39.630Z,18.15
2023-02-21T12:47:24.792Z,17.80
2023-02-21T12:50:21.651Z,18.27
2023-02-21T12:53:12.509Z,18.58
2023-02-21T12:56:01.355Z,18.50
2023-02-21T12:58:48.473Z,17.90
2023-02-21T13:01:43.557Z,18.15
2023-02-21T13:04:44.615Z,18.00
2023-02-21T13:07:25.757Z,17.50
2023-02-21T13:10:25.256Z,18.52
2023-02-21T13:13:18.619Z,17.27
2023-02-21T13:15:47.929Z,17.10
2023-02-21T13:18:51.748Z,18.10
2023-02-21T13:21:34.748Z,17.17
2023-02-21T13:24:56.605Z,17.55
2023-02-21T13:27:52.616Z,17.38
2023-02-21T13:30:56.688Z,16.73
2023-02-21T13:33:50.548Z,17.50
2023-02-21T13:36:35.563Z,17.75
2023-02-21T13:39:20.728Z,17.27
2023-02-21T13:41:47.696Z,17.23
2023-02-21T13:44:36.806Z,18.63
2023-02-21T13:47:10.945Z,17.48
2023-02-21T13:49:59.812Z,16.45
2023-02-21T13:52:32.914Z,18.13
2023-02-21T13:55:21.589Z,17.52
2023-02-21T13:58:07.142Z,18.38
2023-02-21T14:00:40.576Z,17.75
2023-02-21T14:03:07.805Z,18.20
2023-02-21T14:05:53.611Z,19.30
2023-02-21T14:08:47.788Z,17.65
2023-02-21T14:11:36.636Z,18.65
2023-02-21T14:14:24.180Z,17.35
2023-02-21T14:17:11.677Z,17.90
2023-02-21T14:19:43.386Z,18.15
2023-02-21T14:22:19.688Z,17.60
2023-02-21T14:24:53.851Z,17.50
2023-02-21T14:27:28.645Z,17.08
2023-02-21T14:32:58.933Z,17.20
2023-02-21T14:35:44.584Z,16.60
2023-02-21T14:38:46.016Z,16.92
2023-02-21T14:41:25.675Z,17.02
2023-02-21T14:44:21.076Z,17.70
2023-02-21T14:47:02.750Z,17.83
2023-02-21T14:50:11.745Z,17.42
2023-02-21T14:53:05.346Z,15.75
2023-02-21T14:56:02.860Z,15.25
2023-02-21T14:59:03.794Z,16.23
2023-02-21T15:01:48.653Z,14.55
2023-02-21T15:04:34.143Z,13.00
2023-02-21T15:07:22.596Z,12.57
2023-02-21T15:10:18.764Z,11.68
2023-02-21T15:12:53.332Z,11.07
2023-02-21T15:15:48.637Z,10.15
2023-02-21T15:18:28.988Z,9.85
2023-02-21T15:21:11.696Z,8.48
2023-02-21T15:23:50.605Z,9.80
2023-02-21T15:26:28.645Z,8.13
2023-02-21T15:29:19.073Z,8.32
2023-02-21T15:31:59.695Z,8.50
2023-02-21T15:34:29.111Z,8.20
2023-02-21T15:37:13.747Z,7.93
2023-02-21T15:39:48.296Z,7.55
2023-02-21T15:42:25.682Z,8.20
2023-02-21T15:45:04.067Z,7.38
2023-02-21T15:47:41.639Z,7.78
2023-02-21T15:50:30.729Z,7.88
2023-02-21T15:53:21.692Z,8.57
2023-02-21T15:55:50.815Z,8.13
2023-02-21T15:58:29.635Z,8.32
2023-02-21T16:01:08.483Z,9.05
2023-02-21T16:03:49.702Z,9.48
2023-02-21T16:06:32.259Z,8.50
2023-02-21T16:09:29.673Z,8.95
2023-02-21T16:12:11.986Z,8.68
2023-02-21T16:15:11.683Z,8.70
2023-02-21T16:17:50.679Z,8.57
2023-02-21T16:20:37.637Z,7.90
2023-02-21T16:23:19.601Z,8.40
2023-02-21T16:26:08.653Z,8.85
2023-02-21T16:28:37.814Z,9.00
2023-02-21T16:31:24.724Z,9.07
2023-02-21T16:33:52.216Z,8.23
2023-02-21T16:36:38.598Z,8.13
2023-02-21T16:39:05.876Z,8.88
2023-02-21T16:41:39.679Z,9.38
2023-02-21T16:44:06.977Z,9.23
2023-02-21T16:46:40.786Z,9.40
2023-02-21T16:49:16.653Z,9.10
2023-02-21T16:51:50.673Z,9.50
2023-02-21T16:54:18.107Z,9.38
2023-02-21T16:56:47.736Z,9.77
2023-02-21T16:59:23.688Z,9.93
2023-02-21T17:01:57.789Z,10.05
2023-02-21T17:04:36.781Z,10.82
2023-02-21T17:07:23.906Z,9.90
2023-02-21T17:09:57.704Z,9.40
2023-02-21T17:12:25.151Z,10.50
2023-02-21T17:15:00.694Z,9.80
2023-02-21T17:17:28.015Z,9.45
2023-02-21T17:20:04.701Z,9.40
2023-02-21T17:22:33.166Z,10.77
2023-02-21T17:25:08.239Z,9.80
2023-02-21T17:27:42.756Z,10.02
2023-02-21T17:30:17.733Z,9.65
2023-02-21T17:32:54.735Z,11.00
2023-02-21T17:35:25.171Z,10.60
2023-02-21T17:38:08.650Z,10.73
2023-02-21T17:40:36.244Z,9.65
2023-02-21T17:43:14.824Z,10.85
2023-02-21T17:45:42.389Z,10.48
2023-02-21T17:48:15.719Z,10.48
2023-02-21T17:50:42.974Z,10.45
2023-02-21T17:53:16.834Z,11.43
2023-02-21T17:55:46.595Z,10.75
2023-02-21T17:58:21.764Z,10.98
2023-02-21T18:00:48.969Z,11.90
2023-02-21T18:03:16.279Z,11.75
2023-02-21T18:05:49.750Z,10.88
2023-02-21T18:08:29.728Z,11.02
2023-02-21T18:10:56.731Z,11.68
2023-02-21T18:13:30.790Z,11.98
2023-02-21T18:16:11.724Z,11.07
2023-02-21T18:18:39.426Z,12.85
2023-02-21T18:21:16.183Z,12.93
2023-02-21T18:23:51.819Z,13.00
2023-02-21T18:31:57.770Z,13.77
2023-02-21T18:34:25.093Z,14.07
2023-02-21T18:37:00.711Z,14.25
2023-02-21T18:39:28.344Z,13.80
2023-02-21T18:42:01.681Z,13.07
2023-02-21T18:44:31.350Z,15.65
2023-02-21T18:47:05.749Z,15.27
2023-02-21T18:49:45.780Z,15.57
2023-02-21T18:52:14.248Z,15.15
2023-02-21T18:54:56.737Z,14.15
2023-02-21T18:57:24.176Z,14.32
2023-02-21T18:59:57.781Z,15.70
2023-02-21T19:02:27.216Z,15.50
2023-02-21T19:05:01.795Z,16.83
2023-02-21T19:07:36.720Z,15.15
2023-02-21T19:10:10.779Z,15.30
2023-02-21T19:12:38.093Z,15.25
2023-02-21T19:15:12.751Z,16.33
2023-02-21T19:17:46.668Z,16.83
2023-02-21T19:20:20.722Z,15.80
2023-02-21T19:22:52.396Z,17.23
2023-02-21T19:25:26.812Z,17.00
2023-02-21T19:28:06.726Z,17.75
2023-02-21T19:30:36.837Z,16.90
2023-02-21T19:33:12.836Z,16.42
2023-02-21T19:35:40.104Z,18.52
2023-02-21T19:38:15.830Z,17.52
2023-02-21T19:40:43.642Z,18.40
2023-02-21T19:43:17.842Z,16.95
2023-02-21T19:45:45.331Z,17.90
2023-02-21T19:48:18.792Z,17.25
2023-02-21T19:50:46.546Z,17.70
2023-02-21T19:53:21.880Z,16.98
2023-02-21T19:55:55.942Z,17.90
2023-02-21T19:58:29.853Z,17.98
2023-02-21T20:00:57.221Z,17.85
2023-02-21T20:03:33.814Z,17.83
2023-02-21T20:06:01.673Z,17.58
2023-02-21T20:08:41.964Z,17.45
2023-02-21T20:11:10.891Z,18.15
2023-02-21T20:13:45.769Z,19.10
2023-02-21T20:16:26.687Z,18.00
2023-02-21T20:18:54.832Z,18.35
2023-02-21T20:21:35.787Z,17.48
2023-02-21T20:24:03.464Z,18.08
2023-02-21T20:26:37.772Z,17.95
2023-02-21T20:29:05.745Z,18.02
2023-02-21T20:31:42.808Z,18.58
2023-02-21T20:34:10.052Z,18.85
2023-02-21T20:36:48.789Z,18.25
2023-02-21T20:39:35.769Z,18.00
2023-02-21T20:42:12.838Z,18.45
2023-02-21T20:44:50.907Z,18.25
2023-02-21T20:47:24.982Z,19.40
2023-02-21T20:49:52.034Z,18.05
2023-02-21T20:52:25.794Z,19.67
2023-02-21T20:57:46.799Z,18.42
2023-02-21T21:00:15.870Z,19.50
2023-02-21T21:02:49.798Z,19.25
2023-02-21T21:05:17.194Z,19.55
2023-02-21T21:08:15.753Z,18.85
2023-02-21T21:13:36.836Z,19.10
2023-02-21T21:16:16.813Z,18.60
2023-02-21T21:18:44.581Z,19.38
2023-02-21T21:21:27.860Z,18.98
2023-02-21T21:23:55.608Z,19.70
2023-02-21T21:29:09.599Z,20.08
2023-02-21T21:31:45.896Z,20.33
2023-02-21T21:34:31.615Z,20.08
2023-02-21T21:39:51.852Z,20.50
2023-02-21T21:42:26.967Z,19.73
2023-02-21T21:44:56.313Z,20.08
2023-02-21T21:47:34.838Z,20.08
2023-02-21T21:50:10.796Z,20.65
2023-02-21T21:52:43.752Z,20.88
2023-02-21T21:55:17.975Z,21.30
2023-02-21T21:57:51.690Z,19.80
2023-02-21T22:00:29.975Z,20.65
2023-02-21T22:03:06.748Z,21.17
2023-02-21T22:05:36.568Z,20.65
2023-02-21T22:08:28.848Z,20.77
2023-02-21T22:10:55.985Z,19.63
2023-02-21T22:13:30.079Z,20.15
2023-02-21T22:15:57.226Z,21.75
2023-02-21T22:21:20.832Z,20.85
2023-02-21T22:23:54.858Z,20.90
2023-02-21T22:26:29.834Z,21.00
2023-02-21T22:29:00.408Z,20.98
2023-02-21T22:31:35.896Z,21.25
2023-02-21T22:34:06.346Z,20.67
2023-02-21T22:36:45.425Z,21.52
2023-02-21T22:39:14.729Z,20.02
2023-02-21T22:41:53.864Z,20.05
2023-02-21T22:44:26.982Z,20.98
2023-02-21T22:47:04.812Z,20.35
2023-02-21T22:49:34.686Z,20.52
2023-02-21T22:52:12.384Z,21.85
2023-02-21T22:54:42.326Z,20.90
2023-02-21T22:57:16.856Z,20.38
2023-02-21T22:59:53.752Z,20.45
2023-02-21T23:02:24.134Z,19.52
2023-02-21T23:05:04.955Z,20.10
2023-02-21T23:07:55.926Z,21.45
2023-02-21T23:10:31.824Z,21.00
2023-02-21T23:13:00.130Z,20.58
2023-02-21T23:15:34.734Z,20.80
2023-02-21T23:18:05.832Z,20.73
2023-02-21T23:20:43.802Z,20.30
2023-02-21T23:26:06.132Z,19.63
2023-02-21T23:28:45.795Z,20.70
2023-02-21T23:31:20.876Z,20.05
2023-02-21T23:33:48.954Z,19.88
2023-02-21T23:41:55.001Z,21.67
2023-02-21T23:44:22.785Z,21.38
2023-02-21T23:47:02.877Z,22.00
2023-02-21T23:49:31.306Z,21.65
2023-02-21T23:52:14.058Z,20.08
2023-02-21T23:54:41.487Z,22.95
2023-02-21T23:57:17.850Z,21.60
2023-02-21T23:59:45.775Z,20.75
